createdAt,value
2017-11-29T00:01:48.207Z,3.60
2017-11-29T00:04:16.482Z,3.87
2017-11-29T00:06:44.773Z,3.67
2017-11-29T00:09:13.085Z,3.58
2017-11-29T00:11:41.332Z,3.90
2017-11-29T00:14:09.624Z,3.47
2017-11-29T00:16:37.880Z,3.83
2017-11-29T00:19:06.158Z,4.10
2017-11-29T00:21:34.428Z,4.53
2017-11-29T00:24:02.733Z,3.80
2017-11-29T00:26:30.985Z,3.50
2017-11-29T00:28:59.290Z,3.50
2017-11-29T00:31:27.540Z,4.00
2017-11-29T00:33:55.820Z,5.00
2017-11-29T00:36:24.113Z,4.12
2017-11-29T00:38:52.447Z,4.17
2017-11-29T00:41:20.719Z,4.78
2017-11-29T00:43:48.961Z,4.50
2017-11-29T00:46:17.314Z,4.75
2017-11-29T00:48:45.545Z,4.60
2017-11-29T00:51:13.795Z,4.18
2017-11-29T00:53:42.120Z,3.73
2017-11-29T00:56:10.721Z,3.95
2017-11-29T00:58:38.966Z,4.00
2017-11-29T01:01:07.282Z,4.10
2017-11-29T01:03:35.541Z,4.70
2017-11-29T01:06:03.825Z,4.70
2017-11-29T01:08:32.087Z,3.40
2017-11-29T01:11:01.017Z,3.77
2017-11-29T01:13:29.282Z,3.53
2017-11-29T01:15:57.567Z,3.60
2017-11-29T01:18:25.848Z,4.00
2017-11-29T01:20:54.124Z,3.60
2017-11-29T01:23:22.412Z,4.90
2017-11-29T01:25:50.766Z,4.00
2017-11-29T01:28:19.020Z,4.00
2017-11-29T01:30:47.293Z,3.90
2017-11-29T01:33:15.588Z,4.33
2017-11-29T01:35:43.987Z,3.00
2017-11-29T01:38:12.241Z,3.12
2017-11-29T01:40:40.496Z,3.20
2017-11-29T01:43:08.774Z,3.17
2017-11-29T01:45:37.045Z,4.30
2017-11-29T01:48:05.300Z,3.53
2017-11-29T01:50:33.552Z,3.20
2017-11-29T01:53:01.830Z,2.63
2017-11-29T01:55:30.121Z,3.50
2017-11-29T01:57:58.398Z,3.43
2017-11-29T02:00:26.728Z,3.20
2017-11-29T02:02:54.986Z,3.03
2017-11-29T02:05:23.258Z,3.47
2017-11-29T02:07:51.513Z,2.70
2017-11-29T02:10:19.788Z,2.80
2017-11-29T02:12:48.050Z,2.80
2017-11-29T02:15:16.357Z,3.05
2017-11-29T02:17:44.601Z,3.20
2017-11-29T02:20:12.857Z,2.77
2017-11-29T02:22:41.141Z,3.40
2017-11-29T02:25:09.397Z,2.70
2017-11-29T02:27:37.692Z,3.00
2017-11-29T02:30:05.950Z,2.80
2017-11-29T02:32:34.242Z,2.50
2017-11-29T02:35:02.534Z,2.60
2017-11-29T02:37:30.831Z,2.90
2017-11-29T02:40:10.861Z,2.23
2017-11-29T02:42:40.604Z,2.43
2017-11-29T02:45:10.612Z,2.63
2017-11-29T02:47:38.901Z,2.77
2017-11-29T02:50:07.196Z,2.20
2017-11-29T02:52:35.455Z,2.40
2017-11-29T02:55:03.732Z,2.60
2017-11-29T02:57:31.980Z,2.60
2017-11-29T03:00:00.285Z,2.50
2017-11-29T03:02:28.544Z,2.20
2017-11-29T03:04:56.847Z,2.30
2017-11-29T03:07:25.109Z,1.90
2017-11-29T03:09:53.413Z,2.03
2017-11-29T03:12:21.671Z,2.20
2017-11-29T03:14:49.958Z,2.27
2017-11-29T03:17:18.209Z,2.27
2017-11-29T03:19:46.502Z,2.27
2017-11-29T03:22:14.761Z,2.15
2017-11-29T03:24:43.009Z,2.07
2017-11-29T03:27:11.296Z,1.85
2017-11-29T03:29:39.559Z,1.97
2017-11-29T03:32:07.853Z,1.50
2017-11-29T03:34:36.106Z,1.67
2017-11-29T03:37:05.957Z,1.80
2017-11-29T03:39:34.221Z,2.10
2017-11-29T03:42:02.488Z,1.77
2017-11-29T03:44:30.766Z,1.57
2017-11-29T03:46:59.060Z,1.73
2017-11-29T03:49:27.316Z,2.00
2017-11-29T03:51:55.606Z,2.20
2017-11-29T03:54:23.913Z,2.15
2017-11-29T03:56:52.152Z,2.20
2017-11-29T03:59:20.452Z,2.50
2017-11-29T04:01:48.744Z,2.30
2017-11-29T04:04:17.021Z,3.30
2017-11-29T04:06:45.282Z,2.80
2017-11-29T04:09:13.558Z,2.80
2017-11-29T04:11:41.802Z,3.00
2017-11-29T04:14:10.110Z,2.72
2017-11-29T04:16:38.352Z,2.60
2017-11-29T04:19:06.681Z,3.10
2017-11-29T04:21:34.963Z,3.00
2017-11-29T04:24:03.262Z,2.70
2017-11-29T04:26:31.563Z,3.20
2017-11-29T04:28:59.827Z,2.90
2017-11-29T04:31:28.128Z,3.23
2017-11-29T04:33:56.392Z,3.30
2017-11-29T04:36:24.702Z,3.20
2017-11-29T04:38:52.937Z,3.27
2017-11-29T04:41:21.254Z,3.67
2017-11-29T04:43:49.514Z,3.22
2017-11-29T04:46:17.778Z,3.50
2017-11-29T04:48:46.044Z,3.97
2017-11-29T04:51:14.365Z,3.60
2017-11-29T04:53:42.620Z,3.80
2017-11-29T04:56:11.105Z,3.85
2017-11-29T04:58:39.384Z,4.13
2017-11-29T05:01:07.665Z,3.60
2017-11-29T05:03:35.936Z,3.97
2017-11-29T05:06:04.980Z,4.22
2017-11-29T05:08:33.304Z,4.70
2017-11-29T05:11:01.547Z,4.30
2017-11-29T05:13:29.886Z,4.90
2017-11-29T05:15:58.138Z,5.30
2017-11-29T05:18:26.411Z,5.23
2017-11-29T05:20:54.729Z,4.90
2017-11-29T05:23:23.025Z,5.40
2017-11-29T05:25:51.284Z,5.00
2017-11-29T05:28:19.586Z,5.55
2017-11-29T05:30:47.817Z,5.20
2017-11-29T05:33:16.069Z,5.32
2017-11-29T05:35:44.354Z,6.00
2017-11-29T05:38:12.609Z,5.53
2017-11-29T05:40:40.896Z,5.20
2017-11-29T05:43:09.169Z,5.78
2017-11-29T05:45:37.447Z,5.77
2017-11-29T05:48:05.713Z,6.63
2017-11-29T05:50:34.002Z,5.80
2017-11-29T05:53:02.250Z,5.70
2017-11-29T05:55:30.551Z,6.40
2017-11-29T05:57:58.826Z,6.20
2017-11-29T06:00:27.116Z,5.53
2017-11-29T06:02:55.388Z,5.53
2017-11-29T06:05:23.680Z,5.60
2017-11-29T06:07:51.955Z,6.37
2017-11-29T06:10:20.224Z,6.27
2017-11-29T06:12:48.505Z,5.87
2017-11-29T06:15:16.768Z,5.75
2017-11-29T06:17:45.111Z,5.10
2017-11-29T06:20:13.344Z,5.10
2017-11-29T06:22:41.633Z,5.20
2017-11-29T06:25:09.912Z,4.70
2017-11-29T06:27:38.187Z,5.40
2017-11-29T06:30:06.451Z,5.20
2017-11-29T06:32:34.718Z,4.77
2017-11-29T06:35:03.012Z,4.90
2017-11-29T06:37:31.266Z,5.40
2017-11-29T06:39:59.569Z,6.17
2017-11-29T06:42:27.817Z,5.10
2017-11-29T06:44:56.122Z,6.43
2017-11-29T06:47:24.388Z,5.07
2017-11-29T06:49:52.700Z,4.80
2017-11-29T06:52:21.455Z,4.80
2017-11-29T06:54:49.755Z,4.80
2017-11-29T06:57:18.033Z,5.00
2017-11-29T06:59:46.339Z,5.47
2017-11-29T07:02:14.668Z,5.90
2017-11-29T07:04:42.925Z,5.93
2017-11-29T07:07:11.213Z,6.35
2017-11-29T07:09:39.588Z,5.80
2017-11-29T07:12:07.866Z,6.60
2017-11-29T07:14:36.687Z,6.27
2017-11-29T07:17:04.984Z,5.73
2017-11-29T07:19:33.269Z,5.80
2017-11-29T07:22:01.557Z,6.67
2017-11-29T07:24:29.857Z,7.07
2017-11-29T07:26:58.112Z,6.53
2017-11-29T07:29:26.418Z,7.40
2017-11-29T07:31:54.905Z,6.80
2017-11-29T07:34:23.157Z,6.97
2017-11-29T07:36:51.441Z,7.10
2017-11-29T07:39:19.733Z,5.77
2017-11-29T07:41:48.074Z,5.70
2017-11-29T07:44:16.386Z,6.03
2017-11-29T07:46:44.653Z,6.57
2017-11-29T07:49:12.913Z,6.73
2017-11-29T07:51:41.198Z,6.37
2017-11-29T07:54:10.216Z,6.05
2017-11-29T07:56:38.540Z,6.28
2017-11-29T07:59:06.826Z,6.07
2017-11-29T08:01:36.005Z,5.77
2017-11-29T08:04:05.109Z,7.10
2017-11-29T08:06:33.392Z,5.30
2017-11-29T08:09:02.550Z,6.77
2017-11-29T08:11:30.816Z,6.07
2017-11-29T08:13:59.172Z,6.30
2017-11-29T08:16:27.405Z,6.60
2017-11-29T08:18:55.706Z,6.07
2017-11-29T08:21:23.965Z,6.67
2017-11-29T08:23:52.259Z,7.10
2017-11-29T08:26:20.565Z,6.10
2017-11-29T08:28:48.846Z,6.23
2017-11-29T08:31:17.111Z,6.00
2017-11-29T08:33:45.402Z,6.22
2017-11-29T08:36:13.661Z,6.85
2017-11-29T08:38:41.960Z,6.78
2017-11-29T08:41:10.247Z,6.17
2017-11-29T08:43:38.537Z,6.83
2017-11-29T08:46:07.686Z,5.80
2017-11-29T08:48:36.045Z,5.60
2017-11-29T08:51:04.999Z,5.63
2017-11-29T08:53:33.257Z,7.70
2017-11-29T08:56:01.526Z,6.77
2017-11-29T08:58:29.798Z,6.20
2017-11-29T09:00:58.065Z,6.22
2017-11-29T09:03:26.352Z,7.00
2017-11-29T09:05:54.676Z,6.80
2017-11-29T09:08:22.952Z,6.10
2017-11-29T09:10:51.250Z,6.20
2017-11-29T09:13:19.510Z,6.68
2017-11-29T09:15:48.475Z,6.30
2017-11-29T09:18:16.765Z,6.30
2017-11-29T09:20:45.067Z,5.40
2017-11-29T09:23:13.312Z,6.00
2017-11-29T09:25:41.596Z,6.20
2017-11-29T09:28:09.873Z,6.70
2017-11-29T09:30:38.237Z,5.50
2017-11-29T09:33:06.521Z,7.00
2017-11-29T09:35:34.848Z,6.60
2017-11-29T09:38:03.119Z,6.87
2017-11-29T09:40:31.450Z,6.83
2017-11-29T09:42:59.754Z,6.40
2017-11-29T09:45:28.044Z,6.70
2017-11-29T09:47:56.313Z,6.53
2017-11-29T09:50:24.603Z,6.55
2017-11-29T09:52:52.902Z,5.90
2017-11-29T09:55:21.206Z,6.57
2017-11-29T09:57:49.525Z,6.80
2017-11-29T10:00:17.830Z,6.90
2017-11-29T10:02:46.206Z,5.53
2017-11-29T10:05:14.482Z,5.72
2017-11-29T10:07:42.796Z,5.82
2017-11-29T10:10:11.094Z,5.93
2017-11-29T10:12:39.385Z,5.83
2017-11-29T10:15:07.632Z,4.43
2017-11-29T10:17:35.898Z,4.90
2017-11-29T10:20:05.254Z,4.75
2017-11-29T10:22:33.567Z,5.60
2017-11-29T10:25:01.871Z,6.00
2017-11-29T10:27:30.137Z,4.80
2017-11-29T10:29:58.424Z,5.20
2017-11-29T10:32:26.722Z,4.07
2017-11-29T10:34:55.000Z,4.90
2017-11-29T10:37:23.261Z,5.50
2017-11-29T10:39:51.537Z,5.50
2017-11-29T10:42:19.820Z,6.50
2017-11-29T10:44:48.066Z,5.80
2017-11-29T10:47:16.519Z,6.25
2017-11-29T10:49:44.765Z,5.83
2017-11-29T10:52:13.048Z,6.10
2017-11-29T10:54:41.342Z,6.63
2017-11-29T10:57:09.618Z,5.87
2017-11-29T10:59:37.913Z,6.10
2017-11-29T11:02:06.200Z,6.10
2017-11-29T11:04:34.466Z,5.70
2017-11-29T11:07:03.054Z,5.27
2017-11-29T11:09:31.399Z,5.57
2017-11-29T11:11:59.880Z,5.18
2017-11-29T11:14:28.225Z,6.53
2017-11-29T11:16:56.480Z,5.10
2017-11-29T11:19:24.797Z,3.33
2017-11-29T11:21:53.060Z,3.37
2017-11-29T11:24:21.333Z,3.27
2017-11-29T11:26:49.578Z,3.70
2017-11-29T11:29:17.852Z,4.47
2017-11-29T11:31:46.119Z,3.83
2017-11-29T11:34:14.502Z,4.53
2017-11-29T11:36:42.784Z,4.20
2017-11-29T11:39:11.265Z,4.30
2017-11-29T11:41:40.459Z,4.28
2017-11-29T11:44:08.709Z,3.23
2017-11-29T11:46:36.973Z,3.00
2017-11-29T11:49:05.316Z,3.50
2017-11-29T11:51:33.562Z,3.40
2017-11-29T11:54:02.002Z,3.80
2017-11-29T11:56:30.240Z,3.70
2017-11-29T11:58:58.703Z,4.03
2017-11-29T12:01:27.003Z,3.80
2017-11-29T12:03:55.276Z,4.40
2017-11-29T12:06:23.577Z,3.40
2017-11-29T12:08:52.738Z,4.33
2017-11-29T12:11:21.044Z,3.47
2017-11-29T12:13:49.313Z,4.00
2017-11-29T12:16:17.656Z,4.97
2017-11-29T12:18:45.961Z,3.80
2017-11-29T12:21:14.235Z,4.68
2017-11-29T12:23:42.548Z,4.83
2017-11-29T12:26:10.863Z,5.33
2017-11-29T12:28:39.129Z,6.20
2017-11-29T12:31:07.488Z,3.77
2017-11-29T12:33:35.767Z,3.80
2017-11-29T12:36:04.021Z,3.77
2017-11-29T12:38:32.600Z,3.10
2017-11-29T12:41:00.843Z,4.00
2017-11-29T12:43:29.158Z,3.60
2017-11-29T12:45:57.401Z,3.50
2017-11-29T12:48:37.622Z,4.10
2017-11-29T12:51:13.819Z,3.80
2017-11-29T12:53:42.092Z,4.53
2017-11-29T12:56:10.369Z,3.80
2017-11-29T12:58:38.655Z,4.30
2017-11-29T13:01:06.967Z,4.40
2017-11-29T13:03:35.291Z,4.27
2017-11-29T13:06:03.533Z,4.33
2017-11-29T13:08:32.770Z,4.53
2017-11-29T13:11:01.043Z,4.30
2017-11-29T13:13:30.261Z,5.77
2017-11-29T13:15:59.545Z,5.80
2017-11-29T13:18:27.853Z,4.73
2017-11-29T13:20:56.149Z,4.20
2017-11-29T13:23:24.405Z,4.97
2017-11-29T13:25:52.730Z,5.40
2017-11-29T13:28:21.126Z,5.63
2017-11-29T13:30:49.401Z,5.57
2017-11-29T13:33:17.672Z,5.90
2017-11-29T13:35:45.964Z,6.12
2017-11-29T13:38:14.236Z,5.87
2017-11-29T13:40:42.528Z,6.30
2017-11-29T13:43:10.862Z,5.77
2017-11-29T13:45:40.117Z,6.27
2017-11-29T13:48:08.445Z,6.47
2017-11-29T13:50:36.820Z,5.20
2017-11-29T13:53:05.195Z,6.80
2017-11-29T13:55:33.458Z,5.63
2017-11-29T13:58:01.760Z,6.23
2017-11-29T14:00:30.059Z,5.93
2017-11-29T14:02:58.320Z,6.80
2017-11-29T14:05:26.654Z,6.07
2017-11-29T14:07:55.234Z,6.60
2017-11-29T14:10:23.529Z,6.95
2017-11-29T14:12:51.812Z,7.70
2017-11-29T14:15:20.136Z,6.20
2017-11-29T14:17:48.428Z,6.57
2017-11-29T14:20:16.748Z,6.37
2017-11-29T14:22:44.984Z,7.93
2017-11-29T14:25:13.273Z,6.78
2017-11-29T14:27:41.549Z,7.00
2017-11-29T14:30:09.876Z,6.90
2017-11-29T14:32:38.156Z,7.50
2017-11-29T14:35:06.421Z,5.20
2017-11-29T14:37:34.659Z,6.60
2017-11-29T14:40:02.985Z,6.15
2017-11-29T14:42:31.304Z,5.63
2017-11-29T14:44:59.563Z,5.43
2017-11-29T14:47:27.882Z,5.60
2017-11-29T14:49:56.177Z,5.10
2017-11-29T14:52:24.454Z,5.20
2017-11-29T14:54:52.726Z,5.47
2017-11-29T14:57:21.093Z,4.93
2017-11-29T14:59:49.372Z,5.30
2017-11-29T15:02:17.658Z,4.90
2017-11-29T15:04:45.997Z,4.90
2017-11-29T15:07:14.307Z,4.97
2017-11-29T15:09:42.564Z,5.47
2017-11-29T15:12:10.825Z,5.77
2017-11-29T15:14:39.113Z,6.60
2017-11-29T15:17:08.281Z,5.50
2017-11-29T15:19:36.597Z,4.82
2017-11-29T15:22:04.851Z,4.80
2017-11-29T15:24:33.149Z,4.57
2017-11-29T15:27:01.417Z,4.50
2017-11-29T15:29:30.622Z,4.60
2017-11-29T15:31:58.889Z,5.00
2017-11-29T15:34:27.191Z,5.10
2017-11-29T15:36:55.478Z,5.10
2017-11-29T15:39:23.756Z,5.00
2017-11-29T15:41:52.092Z,5.00
2017-11-29T15:44:20.397Z,5.28
2017-11-29T15:46:48.704Z,5.03
2017-11-29T15:49:16.996Z,4.13
2017-11-29T15:51:45.260Z,4.67
2017-11-29T15:54:13.537Z,4.90
2017-11-29T15:56:42.524Z,5.40
2017-11-29T15:59:10.861Z,5.30
2017-11-29T16:01:39.191Z,5.17
2017-11-29T16:04:07.533Z,5.30
2017-11-29T16:06:35.827Z,5.20
2017-11-29T16:09:04.201Z,5.17
2017-11-29T16:11:32.479Z,4.70
2017-11-29T16:14:00.816Z,5.30
2017-11-29T16:16:29.537Z,7.65
2017-11-29T16:18:58.417Z,5.80
2017-11-29T16:21:26.696Z,5.97
2017-11-29T16:23:55.062Z,6.23
2017-11-29T16:26:23.568Z,6.13
2017-11-29T16:28:51.897Z,6.13
2017-11-29T16:31:20.290Z,6.20
2017-11-29T16:33:48.614Z,5.70
2017-11-29T16:36:16.958Z,7.50
2017-11-29T16:38:45.249Z,7.90
2017-11-29T16:41:13.601Z,7.33
2017-11-29T16:43:42.776Z,6.33
2017-11-29T16:46:11.575Z,6.50
2017-11-29T16:48:39.843Z,6.23
2017-11-29T16:51:08.137Z,6.10
2017-11-29T16:53:36.454Z,5.60
2017-11-29T16:56:04.706Z,6.20
2017-11-29T16:58:33.006Z,5.73
2017-11-29T17:01:01.261Z,5.50
2017-11-29T17:03:29.569Z,6.40
2017-11-29T17:05:57.827Z,6.13
2017-11-29T17:08:26.161Z,6.40
2017-11-29T17:10:54.471Z,6.83
2017-11-29T17:13:22.804Z,6.80
2017-11-29T17:15:51.125Z,6.90
2017-11-29T17:18:20.764Z,6.82
2017-11-29T17:20:49.026Z,6.80
2017-11-29T17:23:17.293Z,6.97
2017-11-29T17:25:45.558Z,6.80
2017-11-29T17:28:14.137Z,6.57
2017-11-29T17:30:43.600Z,7.23
2017-11-29T17:33:11.859Z,6.60
2017-11-29T17:35:40.152Z,6.63
2017-11-29T17:38:08.432Z,7.40
2017-11-29T17:40:36.735Z,6.87
2017-11-29T17:43:05.326Z,7.40
2017-11-29T17:45:33.577Z,6.47
2017-11-29T17:48:01.878Z,7.32
2017-11-29T17:50:30.139Z,7.60
2017-11-29T17:52:58.424Z,7.40
2017-11-29T17:55:26.677Z,6.97
2017-11-29T17:57:54.991Z,8.90
2017-11-29T18:00:23.329Z,7.95
2017-11-29T18:02:51.637Z,8.20
2017-11-29T18:05:19.994Z,7.60
2017-11-29T18:07:48.314Z,7.30
2017-11-29T18:10:16.633Z,7.70
2017-11-29T18:12:44.924Z,7.37
2017-11-29T18:15:13.240Z,8.17
2017-11-29T18:17:41.537Z,8.00
2017-11-29T18:20:09.874Z,8.43
2017-11-29T18:22:38.154Z,7.37
2017-11-29T18:25:06.472Z,7.43
2017-11-29T18:27:34.931Z,8.07
2017-11-29T18:30:03.223Z,8.27
2017-11-29T18:32:31.566Z,7.80
2017-11-29T18:35:00.760Z,7.60
2017-11-29T18:37:29.858Z,8.43
2017-11-29T18:39:58.201Z,8.60
2017-11-29T18:42:26.564Z,8.68
2017-11-29T18:44:54.793Z,8.57
2017-11-29T18:47:23.215Z,8.63
2017-11-29T18:49:51.571Z,8.50
2017-11-29T18:52:20.304Z,8.60
2017-11-29T18:54:48.636Z,8.60
2017-11-29T18:57:16.902Z,7.57
2017-11-29T18:59:45.209Z,8.20
2017-11-29T19:02:13.457Z,8.57
2017-11-29T19:04:41.769Z,8.33
2017-11-29T19:07:10.016Z,9.00
2017-11-29T19:09:38.368Z,8.97
2017-11-29T19:12:06.648Z,8.63
2017-11-29T19:14:35.959Z,8.83
2017-11-29T19:17:04.347Z,9.30
2017-11-29T19:19:32.689Z,8.00
2017-11-29T19:22:00.980Z,8.33
2017-11-29T19:24:29.345Z,8.90
2017-11-29T19:26:57.968Z,9.00
2017-11-29T19:29:26.282Z,10.43
2017-11-29T19:31:54.612Z,10.20
2017-11-29T19:34:22.875Z,8.00
2017-11-29T19:36:51.161Z,9.07
2017-11-29T19:39:19.475Z,7.97
2017-11-29T19:41:47.760Z,9.30
2017-11-29T19:44:16.045Z,9.50
2017-11-29T19:46:44.375Z,9.80
2017-11-29T19:49:12.697Z,9.80
2017-11-29T19:51:41.041Z,8.97
2017-11-29T19:54:09.401Z,9.70
2017-11-29T19:56:37.684Z,10.10
2017-11-29T19:59:05.973Z,9.90
2017-11-29T20:01:34.237Z,8.02
2017-11-29T20:04:02.545Z,8.20
2017-11-29T20:06:30.794Z,9.00
2017-11-29T20:08:59.164Z,7.70
2017-11-29T20:11:27.420Z,8.90
2017-11-29T20:13:55.720Z,8.27
2017-11-29T20:16:24.130Z,8.60
2017-11-29T20:18:52.454Z,9.37
2017-11-29T20:21:20.748Z,8.25
2017-11-29T20:23:49.041Z,9.50
2017-11-29T20:26:17.333Z,9.30
2017-11-29T20:28:45.605Z,9.40
2017-11-29T20:31:13.950Z,9.77
2017-11-29T20:33:42.208Z,8.40
2017-11-29T20:36:10.500Z,8.30
2017-11-29T20:38:38.772Z,9.17
2017-11-29T20:41:07.150Z,8.50
2017-11-29T20:43:35.429Z,8.50
2017-11-29T20:46:03.696Z,9.17
2017-11-29T20:48:31.978Z,9.80
2017-11-29T20:51:00.370Z,9.10
2017-11-29T20:53:28.718Z,9.97
2017-11-29T20:55:56.995Z,8.90
2017-11-29T20:58:25.294Z,9.10
2017-11-29T21:00:53.556Z,8.33
2017-11-29T21:03:22.191Z,10.00
2017-11-29T21:05:50.484Z,9.60
2017-11-29T21:08:18.792Z,8.13
2017-11-29T21:10:47.059Z,9.40
2017-11-29T21:13:15.422Z,9.15
2017-11-29T21:15:43.709Z,9.52
2017-11-29T21:18:12.001Z,11.03
2017-11-29T21:20:40.266Z,9.90
2017-11-29T21:23:08.599Z,8.80
2017-11-29T21:25:36.849Z,8.13
2017-11-29T21:28:05.102Z,9.33
2017-11-29T21:30:33.396Z,8.60
2017-11-29T21:33:01.667Z,9.37
2017-11-29T21:35:29.941Z,9.27
2017-11-29T21:37:58.210Z,9.30
2017-11-29T21:40:26.529Z,10.23
2017-11-29T21:42:54.797Z,10.83
2017-11-29T21:45:23.087Z,10.83
2017-11-29T21:47:51.365Z,10.30
2017-11-29T21:50:19.682Z,9.90
2017-11-29T21:52:48.042Z,10.70
2017-11-29T21:55:16.322Z,10.23
2017-11-29T21:57:44.612Z,10.30
2017-11-29T22:00:12.904Z,9.85
2017-11-29T22:02:41.401Z,10.00
2017-11-29T22:05:09.718Z,10.63
2017-11-29T22:07:38.010Z,10.73
2017-11-29T22:10:06.269Z,11.18
2017-11-29T22:12:34.563Z,11.40
2017-11-29T22:15:02.853Z,10.87
2017-11-29T22:17:31.148Z,10.40
2017-11-29T22:19:59.458Z,10.07
2017-11-29T22:22:29.078Z,9.43
2017-11-29T22:24:57.372Z,10.47
2017-11-29T22:27:25.654Z,10.60
2017-11-29T22:29:54.259Z,10.33
2017-11-29T22:32:22.550Z,10.90
2017-11-29T22:34:50.829Z,9.53
2017-11-29T22:37:19.077Z,9.90
2017-11-29T22:39:47.365Z,11.00
2017-11-29T22:42:15.636Z,9.95
2017-11-29T22:44:43.945Z,9.60
2017-11-29T22:47:12.216Z,8.65
2017-11-29T22:49:40.534Z,9.70
2017-11-29T22:52:08.851Z,9.30
2017-11-29T22:54:37.145Z,9.00
2017-11-29T22:57:05.495Z,9.27
2017-11-29T22:59:33.794Z,9.70
2017-11-29T23:02:02.131Z,9.35
2017-11-29T23:04:30.413Z,9.80
2017-11-29T23:06:58.709Z,9.82
2017-11-29T23:12:01.648Z,9.43
2017-11-29T23:14:29.921Z,10.30
2017-11-29T23:16:58.212Z,10.05
2017-11-29T23:19:26.529Z,10.10
2017-11-29T23:21:54.799Z,9.93
2017-11-29T23:24:23.101Z,9.95
2017-11-29T23:26:51.369Z,10.20
2017-11-29T23:29:19.658Z,9.47
2017-11-29T23:31:47.958Z,9.25
2017-11-29T23:34:16.244Z,10.13
2017-11-29T23:36:44.525Z,9.47
2017-11-29T23:39:12.829Z,10.23
2017-11-29T23:41:41.105Z,8.47
2017-11-29T23:44:09.406Z,10.23
2017-11-29T23:46:37.673Z,9.20
2017-11-29T23:49:05.998Z,9.13
2017-11-29T23:51:34.266Z,9.77
2017-11-29T23:54:02.584Z,9.65
2017-11-29T23:56:30.845Z,9.23
2017-11-29T23:58:59.146Z,8.53
